Time;durP1;ratioP1;P1;durP2;ratioP2;P2;SDS_P1;SDS_P2;PMS_P1;PMS_P2;Temp;Humidity;BMP_temperature;BMP_pressure;BME280_temperature;BME280_humidity;BME280_pressure;Samples;Min_cycle;Max_cycle;Signal;HPM_P1;HPM_P2
2021/01/16 03:59:43;;;;;;;59.38;30.00;;;;;;;;;;860237;23;21611;-90
2021/01/16 04:02:09;;;;;;;63.22;31.40;;;;;;;;;;4905126;29;20059;-90
2021/01/16 04:04:35;;;;;;;65.88;32.58;;;;;;;;;;4923882;29;20032;-90
2021/01/16 04:07:02;;;;;;;68.65;33.83;;;;;;;;;;4923920;29;20020;-90
2021/01/16 04:09:28;;;;;;;67.75;32.45;;;;;;;;;;4923412;29;20028;-91
2021/01/16 04:11:55;;;;;;;64.97;33.92;;;;;;;;;;4923322;29;20323;-90
2021/01/16 04:14:41;;;;;;;75.57;36.80;;;;;;;;;;4923330;29;20035;-90
2021/01/16 04:17:07;;;;;;;82.63;40.33;;;;;;;;;;4923150;29;20067;-91
2021/01/16 04:19:34;;;;;;;81.82;40.05;;;;;;;;;;4923453;29;20028;-91
2021/01/16 04:22:00;;;;;;;88.40;39.85;;;;;;;;;;4923249;29;20077;-92
2021/01/16 04:24:26;;;;;;;87.97;41.58;;;;;;;;;;4906599;29;20404;-90
2021/01/16 04:26:53;;;;;;;92.68;43.22;;;;;;;;;;4906607;29;20044;-91
2021/01/16 04:29:19;;;;;;;85.15;43.80;;;;;;;;;;4906343;29;20071;-92
2021/01/16 04:31:45;;;;;;;106.88;46.28;;;;;;;;;;4923494;29;20036;-93
2021/01/16 04:34:12;;;;;;;78.93;39.03;;;;;;;;;;4906446;29;20411;-94
2021/01/16 04:36:38;;;;;;;53.03;27.15;;;;;;;;;;4906504;29;20040;-94
2021/01/16 04:50:14;;;;;;;45.47;24.05;;;;;;;;;;5009320;23;20142;-91
2021/01/16 04:52:42;;;;;;;46.40;24.55;;;;;;;;;;4945655;29;20031;-90
2021/01/16 04:55:10;;;;;;;46.40;24.10;;;;;;;;;;4940928;29;20448;-87
2021/01/16 04:57:37;;;;;;;46.35;24.73;;;;;;;;;;4924958;29;20084;-86
2021/01/16 05:03:08;;;;;;;54.20;27.05;;;;;;;;;;4933796;29;20335;-86
2021/01/16 05:05:37;;;;;;;52.15;26.05;;;;;;;;;;4905696;29;20134;-85
2021/01/16 05:08:03;;;;;;;56.05;26.77;;;;;;;;;;4922317;29;20088;-85
2021/01/16 05:10:34;;;;;;;61.70;29.85;;;;;;;;;;4922082;29;20047;-86
2021/01/16 05:13:04;;;;;;;67.10;33.13;;;;;;;;;;4905596;29;20029;-86
2021/01/16 05:15:31;;;;;;;79.80;38.22;;;;;;;;;;4922322;29;20084;-85
2021/01/16 05:18:03;;;;;;;69.45;33.38;;;;;;;;;;4922049;29;20471;-86
2021/01/16 05:20:29;;;;;;;61.25;30.13;;;;;;;;;;4922139;29;20462;-86
2021/01/16 05:23:11;;;;;;;56.03;27.60;;;;;;;;;;4922005;29;20043;-84
2021/01/16 05:25:58;;;;;;;51.33;26.83;;;;;;;;;;4922087;29;20025;-85
2021/01/16 05:28:25;;;;;;;56.78;27.33;;;;;;;;;;4921166;29;20036;-87
2021/01/16 05:30:53;;;;;;;75.22;35.60;;;;;;;;;;4921782;29;20036;-85
2021/01/16 05:33:23;;;;;;;99.78;45.08;;;;;;;;;;4921779;29;20419;-85
2021/01/16 05:38:45;;;;;;;113.30;46.28;;;;;;;;;;4974624;23;20055;-85
2021/01/16 06:22:21;;;;;;;109.05;50.47;;;;;;;;;;4982639;23;20048;-85
2021/01/16 06:24:48;;;;;;;93.07;44.25;;;;;;;;;;4958119;29;20039;-84
2021/01/16 06:27:21;;;;;;;100.03;46.58;;;;;;;;;;4942312;29;20485;-86
2021/01/16 06:29:47;;;;;;;;;;;;;;;;;;4942617;29;20038;-86
2021/01/16 06:32:14;;;;;;;150.48;71.38;;;;;;;;;;4959270;29;19906;-86
2021/01/16 09:21:44;;;;;;;35.17;17.02;;;;;;;;;;4960526;28;20050;-86
2021/01/16 09:30:20;;;;;;;36.13;18.23;;;;;;;;;;4982507;23;20085;-86
2021/01/16 09:32:47;;;;;;;43.33;22.40;;;;;;;;;;4959994;29;20021;-86
2021/01/16 09:35:13;;;;;;;51.67;26.10;;;;;;;;;;4941993;29;20039;-86
2021/01/16 09:37:39;;;;;;;74.57;34.78;;;;;;;;;;4959590;28;20030;-86
2021/01/16 09:48:58;;;;;;;56.50;25.98;;;;;;;;;;4993636;23;20062;-84
2021/01/16 12:46:26;;;;;;;45.40;21.05;;;;;;;;;;4960899;28;20058;-86
2021/01/16 12:48:53;;;;;;;83.32;43.00;;;;;;;;;;4960571;28;20326;-85
2021/01/16 12:51:19;;;;;;;148.35;68.65;;;;;;;;;;4956625;29;20035;-85
2021/01/16 12:53:47;;;;;;;810.03;359.45;;;;;;;;;;4942034;29;20031;-86
2021/01/16 12:56:17;;;;;;;271.52;105.57;;;;;;;;;;4942081;29;20034;-86
2021/01/16 12:58:44;;;;;;;170.68;78.10;;;;;;;;;;4941606;29;20115;-85
2021/01/16 13:01:12;;;;;;;335.80;100.93;;;;;;;;;;4924933;29;20036;-86
2021/01/16 13:03:38;;;;;;;720.08;260.83;;;;;;;;;;4941634;29;20055;-87
2021/01/16 13:06:05;;;;;;;733.85;280.35;;;;;;;;;;4941414;29;20078;-85
2021/01/16 13:08:33;;;;;;;804.33;360.73;;;;;;;;;;4941650;29;20111;-85
2021/01/16 13:11:01;;;;;;;45.60;22.45;;;;;;;;;;4941100;29;20027;-85
2021/01/16 13:19:08;;;;;;;629.38;333.48;;;;;;;;;;4990213;23;20134;-85
2021/01/16 13:21:34;;;;;;;88.93;47.97;;;;;;;;;;4960388;29;20039;-85
2021/01/16 13:24:00;;;;;;;72.45;31.42;;;;;;;;;;4943449;29;20091;-85
2021/01/16 13:26:26;;;;;;;115.80;62.90;;;;;;;;;;4960038;29;20027;-85
2021/01/16 13:28:54;;;;;;;72.53;41.95;;;;;;;;;;4943399;29;20026;-86
2021/01/16 13:31:57;;;;;;;445.63;222.63;;;;;;;;;;4960143;29;20035;-86
2021/01/16 13:34:24;;;;;;;1467.65;789.70;;;;;;;;;;4960001;28;20074;-85
2021/01/16 13:36:51;;;;;;;1417.10;790.17;;;;;;;;;;4959949;29;20099;-85
2021/01/16 13:39:17;;;;;;;865.13;542.38;;;;;;;;;;4960207;29;20055;-85
2021/01/16 13:41:43;;;;;;;205.88;110.10;;;;;;;;;;4959931;29;20330;-84
2021/01/16 13:44:19;;;;;;;815.65;528.20;;;;;;;;;;4942882;29;20330;-84
2021/01/16 13:46:47;;;;;;;654.17;358.90;;;;;;;;;;4959990;29;20035;-85
2021/01/16 13:49:26;;;;;;;198.63;109.78;;;;;;;;;;4959520;29;20362;-84
2021/01/16 13:52:02;;;;;;;207.05;123.85;;;;;;;;;;4951346;29;20429;-85
2021/01/16 13:54:32;;;;;;;88.90;46.45;;;;;;;;;;4940512;29;20064;-85
2021/01/16 13:56:59;;;;;;;85.80;49.08;;;;;;;;;;4940673;29;20359;-86
2021/01/16 13:59:28;;;;;;;419.52;239.85;;;;;;;;;;4940733;29;20047;-85
2021/01/16 14:02:01;;;;;;;130.25;70.22;;;;;;;;;;4940411;29;20032;-84
2021/01/16 14:04:28;;;;;;;63.25;33.63;;;;;;;;;;4940668;29;20028;-85
2021/01/16 14:06:57;;;;;;;85.55;43.92;;;;;;;;;;4940656;29;20027;-84
2021/01/16 14:09:25;;;;;;;66.60;31.90;;;;;;;;;;4923925;29;20040;-84
2021/01/16 14:11:51;;;;;;;62.50;27.67;;;;;;;;;;4940509;29;20156;-84
2021/01/16 14:14:24;;;;;;;60.17;29.83;;;;;;;;;;4940171;29;20027;-84
2021/01/16 14:16:50;;;;;;;51.78;25.17;;;;;;;;;;4940118;29;20039;-85
2021/01/16 14:19:17;;;;;;;57.63;27.55;;;;;;;;;;4940367;29;20410;-84
2021/01/16 14:21:52;;;;;;;44.67;23.70;;;;;;;;;;4939727;29;20024;-85
2021/01/16 14:24:18;;;;;;;43.97;22.95;;;;;;;;;;4923740;29;20032;-84
2021/01/16 14:26:54;;;;;;;46.83;22.95;;;;;;;;;;4940051;29;20020;-84
2021/01/16 14:29:20;;;;;;;43.33;21.30;;;;;;;;;;4940157;29;20034;-84
2021/01/16 14:31:47;;;;;;;40.85;21.65;;;;;;;;;;4923495;29;20031;-85
2021/01/16 14:34:13;;;;;;;39.00;21.23;;;;;;;;;;4940345;29;20027;-84
2021/01/16 14:36:39;;;;;;;38.17;21.88;;;;;;;;;;4940286;29;20079;-84
2021/01/16 14:39:13;;;;;;;46.47;23.00;;;;;;;;;;4939966;29;20475;-90
2021/01/16 14:41:44;;;;;;;86.68;45.78;;;;;;;;;;4939874;29;20330;-84
2021/01/16 14:44:14;;;;;;;64.85;33.20;;;;;;;;;;4940014;29;20028;-84
2021/01/16 14:46:40;;;;;;;64.65;34.83;;;;;;;;;;4937245;29;20028;-83
2021/01/16 14:49:10;;;;;;;61.17;32.00;;;;;;;;;;4958658;29;20362;-83
2021/01/16 14:51:40;;;;;;;72.55;38.92;;;;;;;;;;4958656;28;20103;-82
2021/01/16 14:54:07;;;;;;;61.10;32.75;;;;;;;;;;4941886;29;20030;-83
2021/01/16 14:56:49;;;;;;;59.17;29.65;;;;;;;;;;4958457;29;20058;-84
2021/01/16 14:59:16;;;;;;;61.78;30.52;;;;;;;;;;4941967;29;20035;-84
2021/01/16 15:01:46;;;;;;;55.67;29.90;;;;;;;;;;4958847;29;20028;-83
2021/01/16 15:04:13;;;;;;;53.53;27.80;;;;;;;;;;4958772;29;20031;-82
2021/01/16 15:06:42;;;;;;;49.70;27.30;;;;;;;;;;4958692;29;20291;-83
2021/01/16 15:09:08;;;;;;;48.85;26.90;;;;;;;;;;4958156;29;20440;-83
2021/01/16 15:11:34;;;;;;;52.85;28.95;;;;;;;;;;4958620;29;20453;-82
2021/01/16 15:14:01;;;;;;;59.92;29.67;;;;;;;;;;4935733;29;20168;-84
2021/01/16 15:16:27;;;;;;;55.17;27.95;;;;;;;;;;4930959;29;20144;-84
2021/01/16 15:18:53;;;;;;;51.70;26.15;;;;;;;;;;4936515;29;20049;-84
2021/01/16 15:21:19;;;;;;;47.03;23.55;;;;;;;;;;4939714;29;20032;-84
2021/01/16 15:23:45;;;;;;;39.55;21.25;;;;;;;;;;4939202;29;20043;-85
2021/01/16 15:26:12;;;;;;;49.38;24.02;;;;;;;;;;4922677;29;20032;-83
2021/01/16 15:28:38;;;;;;;62.97;27.55;;;;;;;;;;4923464;29;20449;-84
2021/01/16 15:31:05;;;;;;;84.70;34.95;;;;;;;;;;4939003;29;20107;-83
2021/01/16 15:33:42;;;;;;;84.28;38.70;;;;;;;;;;4941572;29;20020;-82
2021/01/16 15:36:08;;;;;;;79.07;39.13;;;;;;;;;;4942693;29;20023;-83
2021/01/16 15:38:37;;;;;;;83.07;40.33;;;;;;;;;;4943868;29;20084;-84
2021/01/16 15:41:03;;;;;;;88.15;43.13;;;;;;;;;;4941815;29;20032;-84
2021/01/16 15:43:37;;;;;;;157.98;59.42;;;;;;;;;;4943031;29;20079;-85
2021/01/16 15:46:13;;;;;;;194.52;70.85;;;;;;;;;;4926100;29;20031;-81
2021/01/16 15:48:47;;;;;;;207.40;75.95;;;;;;;;;;4942414;29;20047;-84
2021/01/16 15:51:22;;;;;;;545.55;257.92;;;;;;;;;;4925573;29;20032;-80
2021/01/16 15:53:48;;;;;;;416.45;185.98;;;;;;;;;;4942741;29;20032;-81
2021/01/16 15:56:14;;;;;;;205.82;90.65;;;;;;;;;;4925980;29;20027;-86
2021/01/16 15:58:40;;;;;;;155.48;69.15;;;;;;;;;;4942092;29;20035;-89
2021/01/16 16:01:13;;;;;;;96.50;44.78;;;;;;;;;;4943382;29;20061;-88
2021/01/16 16:03:43;;;;;;;77.35;37.45;;;;;;;;;;4961900;29;20030;-87
2021/01/16 16:06:09;;;;;;;91.00;42.85;;;;;;;;;;4961786;29;20034;-91
2021/01/16 16:08:35;;;;;;;89.88;43.05;;;;;;;;;;4931570;29;20135;-90
2021/01/16 16:11:03;;;;;;;98.32;47.75;;;;;;;;;;4942532;29;20028;-90
2021/01/16 16:13:31;;;;;;;116.63;54.17;;;;;;;;;;4917021;29;20034;-90
2021/01/16 16:15:58;;;;;;;127.25;61.40;;;;;;;;;;4942554;29;20034;-90
2021/01/16 16:18:24;;;;;;;140.02;67.82;;;;;;;;;;4947597;29;20094;-94
2021/01/16 16:20:51;;;;;;;200.85;78.55;;;;;;;;;;4925200;29;20051;-89
2021/01/16 16:23:17;;;;;;;274.63;98.53;;;;;;;;;;4942361;29;20122;-89
2021/01/16 16:25:44;;;;;;;269.90;102.32;;;;;;;;;;4942951;29;20295;-90
2021/01/16 16:28:10;;;;;;;293.17;108.78;;;;;;;;;;4942186;29;20032;-89
2021/01/16 16:30:37;;;;;;;288.52;98.93;;;;;;;;;;4942471;29;20036;-90
2021/01/16 16:39:28;;;;;;;275.88;103.45;;;;;;;;;;4942350;29;20031;-90
2021/01/16 16:41:55;;;;;;;366.13;123.65;;;;;;;;;;4924930;29;20330;-90
2021/01/16 16:44:21;;;;;;;250.13;96.20;;;;;;;;;;4941420;29;20023;-88
2021/01/16 16:49:51;;;;;;;134.90;61.60;;;;;;;;;;4941998;29;20035;-88
2021/01/16 16:52:17;;;;;;;120.97;57.03;;;;;;;;;;4941610;29;20413;-89
2021/01/16 16:54:43;;;;;;;132.25;63.40;;;;;;;;;;4941678;29;20115;-89
2021/01/16 16:57:09;;;;;;;130.70;63.30;;;;;;;;;;4924660;29;20042;-90
2021/01/16 16:59:35;;;;;;;275.17;119.68;;;;;;;;;;4924923;29;20043;-89
2021/01/16 17:02:01;;;;;;;266.65;111.28;;;;;;;;;;4941878;29;20031;-89
2021/01/16 17:04:27;;;;;;;283.50;114.57;;;;;;;;;;4941565;29;20035;-89
2021/01/16 17:06:53;;;;;;;265.58;110.40;;;;;;;;;;4941485;29;20411;-91
2021/01/16 17:09:19;;;;;;;285.65;123.20;;;;;;;;;;4941296;29;20035;-90
2021/01/16 17:11:47;;;;;;;339.90;148.30;;;;;;;;;;4941608;29;20103;-89
2021/01/16 17:14:14;;;;;;;221.07;101.10;;;;;;;;;;4941610;29;20091;-90
2021/01/16 17:16:41;;;;;;;314.35;134.60;;;;;;;;;;4941259;29;20028;-89
2021/01/16 17:19:07;;;;;;;398.13;177.85;;;;;;;;;;4924019;29;20126;-89
2021/01/16 17:21:36;;;;;;;418.35;184.00;;;;;;;;;;4941164;29;20027;-89
2021/01/16 17:24:03;;;;;;;807.35;326.90;;;;;;;;;;4941552;29;20047;-89
2021/01/16 17:26:29;;;;;;;698.38;288.60;;;;;;;;;;4941625;29;20019;-90
2021/01/16 17:28:57;;;;;;;782.92;335.60;;;;;;;;;;4941302;29;20027;-90
2021/01/16 17:31:24;;;;;;;710.80;315.63;;;;;;;;;;4940904;29;20028;-89
2021/01/16 17:33:50;;;;;;;729.72;336.92;;;;;;;;;;4942044;29;20103;-88
2021/01/16 17:36:21;;;;;;;663.28;304.67;;;;;;;;;;4941424;29;20023;-89
2021/01/16 17:38:47;;;;;;;515.60;220.48;;;;;;;;;;4941062;29;20103;-89
2021/01/16 17:41:13;;;;;;;357.67;139.07;;;;;;;;;;4947036;29;20034;-90
2021/01/16 17:43:39;;;;;;;264.83;102.57;;;;;;;;;;4941939;29;20050;-92
2021/01/16 17:46:05;;;;;;;222.68;88.35;;;;;;;;;;4959406;29;20031;-90
2021/01/16 17:48:31;;;;;;;221.05;90.90;;;;;;;;;;4959726;29;20110;-89
2021/01/16 17:50:59;;;;;;;209.75;87.90;;;;;;;;;;4959664;28;20023;-90
2021/01/16 17:53:25;;;;;;;189.23;77.40;;;;;;;;;;4942941;29;20085;-89
2021/01/16 17:55:52;;;;;;;172.43;73.38;;;;;;;;;;4959672;28;20024;-89
2021/01/16 17:58:18;;;;;;;163.65;69.70;;;;;;;;;;4959700;29;20031;-90
2021/01/16 18:00:44;;;;;;;175.00;72.57;;;;;;;;;;4955244;29;20064;-90
2021/01/16 18:03:10;;;;;;;193.75;78.53;;;;;;;;;;4938549;29;20450;-91
2021/01/16 18:05:36;;;;;;;124.60;52.20;;;;;;;;;;4940625;29;20039;-90
2021/01/16 18:08:02;;;;;;;87.03;40.05;;;;;;;;;;4940883;29;20047;-91
2021/01/16 18:10:28;;;;;;;75.82;35.83;;;;;;;;;;4923821;29;20028;-90
2021/01/16 18:12:55;;;;;;;70.18;31.92;;;;;;;;;;4940986;29;20016;-90
2021/01/16 18:15:25;;;;;;;71.70;35.10;;;;;;;;;;4923761;29;20062;-91
2021/01/16 18:17:51;;;;;;;58.70;29.88;;;;;;;;;;4923471;29;20048;-92
2021/01/16 18:20:17;;;;;;;53.20;27.08;;;;;;;;;;4940533;29;20322;-91
2021/01/16 18:22:44;;;;;;;37.72;20.50;;;;;;;;;;4923650;29;20363;-91
2021/01/16 18:25:10;;;;;;;68.78;30.98;;;;;;;;;;4940592;29;20035;-91
2021/01/16 18:27:36;;;;;;;93.60;38.10;;;;;;;;;;4940220;29;20115;-90
2021/01/16 18:30:04;;;;;;;84.97;39.38;;;;;;;;;;4940247;29;20038;-90
2021/01/16 18:32:30;;;;;;;53.10;27.23;;;;;;;;;;4923501;29;20486;-90
2021/01/16 18:34:58;;;;;;;44.88;21.77;;;;;;;;;;4940496;29;20099;-91
2021/01/16 18:37:24;;;;;;;43.03;23.40;;;;;;;;;;4940346;29;20024;-90
2021/01/16 18:39:50;;;;;;;41.47;22.02;;;;;;;;;;4939352;29;20126;-93
2021/01/16 18:42:16;;;;;;;41.00;22.52;;;;;;;;;;4923355;29;20043;-92
2021/01/16 18:44:42;;;;;;;78.63;35.42;;;;;;;;;;4940069;29;20040;-90
2021/01/16 18:47:09;;;;;;;112.07;47.03;;;;;;;;;;4940235;29;20044;-92
2021/01/16 18:49:38;;;;;;;128.80;53.20;;;;;;;;;;4923261;29;20036;-91
2021/01/16 18:52:04;;;;;;;136.48;56.05;;;;;;;;;;4939908;29;20039;-94
2021/01/16 18:54:31;;;;;;;148.65;65.82;;;;;;;;;;4940130;29;20020;-95
2021/01/16 18:56:57;;;;;;;150.77;62.53;;;;;;;;;;4923316;29;20028;-91
2021/01/16 18:59:24;;;;;;;106.22;46.35;;;;;;;;;;4940309;29;20020;-92
2021/01/16 19:01:51;;;;;;;85.18;38.20;;;;;;;;;;4940016;29;20395;-93
2021/01/16 19:04:17;;;;;;;55.53;25.83;;;;;;;;;;4940112;29;20047;-93
2021/01/16 19:06:46;;;;;;;60.25;28.38;;;;;;;;;;4939673;29;20027;-93
2021/01/16 19:09:13;;;;;;;51.15;25.13;;;;;;;;;;4942494;29;20024;-92
2021/01/16 19:11:39;;;;;;;62.17;28.88;;;;;;;;;;4927104;29;20024;-92
2021/01/16 19:14:05;;;;;;;64.57;28.80;;;;;;;;;;4943452;29;20027;-93
2021/01/16 19:16:32;;;;;;;58.22;25.48;;;;;;;;;;4943646;29;20019;-92
2021/01/16 19:18:58;;;;;;;43.67;21.20;;;;;;;;;;4943227;29;20055;-93
2021/01/16 19:21:24;;;;;;;88.43;42.63;;;;;;;;;;4943633;29;20051;-92
2021/01/16 19:23:50;;;;;;;64.55;32.25;;;;;;;;;;4926439;29;20031;-92
2021/01/16 19:26:20;;;;;;;51.40;26.00;;;;;;;;;;4943582;29;20047;-92
2021/01/16 19:28:52;;;;;;;52.70;26.80;;;;;;;;;;4943444;29;20031;-92
2021/01/16 19:31:18;;;;;;;60.20;30.17;;;;;;;;;;4943312;29;20035;-93
2021/01/16 19:39:52;;;;;;;90.20;42.85;;;;;;;;;;4943232;29;20468;-92
2021/01/16 19:42:18;;;;;;;90.60;42.38;;;;;;;;;;4943330;29;20027;-93
2021/01/16 19:44:44;;;;;;;87.07;40.08;;;;;;;;;;4942899;29;20034;-92
2021/01/16 19:53:05;;;;;;;69.57;34.33;;;;;;;;;;4987190;23;20051;-91
2021/01/16 19:55:33;;;;;;;61.30;30.95;;;;;;;;;;4941944;29;20326;-93
2021/01/16 19:58:01;;;;;;;66.97;30.30;;;;;;;;;;4942491;29;20019;-91
2021/01/16 20:00:29;;;;;;;51.28;25.50;;;;;;;;;;4942750;29;20028;-92
2021/01/16 20:02:55;;;;;;;52.25;25.73;;;;;;;;;;4942888;29;20040;-92
2021/01/16 20:08:08;;;;;;;53.13;27.10;;;;;;;;;;4942845;29;20043;-90
2021/01/16 20:16:39;;;;;;;51.60;26.02;;;;;;;;;;4998775;23;20095;-90
2021/01/16 20:31:22;;;;;;;50.40;25.23;;;;;;;;;;5072914;23;20131;-90
2021/01/16 20:36:49;;;;;;;60.47;28.98;;;;;;;;;;4922194;29;20453;-92
2021/01/16 20:39:15;;;;;;;;;;;;;;;;;;4922993;29;20346;-88
2021/01/16 20:51:13;;;;;;;51.40;25.30;;;;;;;;;;4924594;29;20047;-92
2021/01/16 22:02:12;;;;;;;64.05;27.35;;;;;;;;;;5024584;23;20058;-90
2021/01/16 22:10:10;;;;;;;86.55;34.13;;;;;;;;;;5010170;23;20056;-92
2021/01/16 22:50:25;;;;;;;83.40;38.17;;;;;;;;;;5114404;23;20058;-90
